Time;durP1;ratioP1;P1;durP2;ratioP2;P2;SDS_P1;SDS_P2;PMS_P1;PMS_P2;Temp;Humidity;BMP_temperature;BMP_pressure;BME280_temperature;BME280_humidity;BME280_pressure;Samples;Min_cycle;Max_cycle;Signal;HPM_P1;HPM_P2
2023/10/26 00:01:56;;;;;;;6.85;1.33;;;;;;;14.72;100.00;92313.91;5064340;28;20070;-79
2023/10/26 00:04:23;;;;;;;4.88;1.25;;;;;;;14.80;100.00;92316.00;5069627;28;20102;-81
2023/10/26 00:06:49;;;;;;;6.22;1.15;;;;;;;14.73;100.00;92307.72;5069377;28;20047;-81
2023/10/26 00:09:16;;;;;;;4.13;1.10;;;;;;;14.74;100.00;92309.25;5066518;28;20102;-81
2023/10/26 00:11:43;;;;;;;3.17;1.33;;;;;;;14.73;100.00;92306.94;5064698;28;20094;-80
2023/10/26 00:14:11;;;;;;;6.40;1.70;;;;;;;14.82;100.00;92316.53;5069199;28;20090;-81
2023/10/26 00:16:37;;;;;;;7.47;1.33;;;;;;;14.72;100.00;92300.97;5069158;28;20700;-83
2023/10/26 00:19:05;;;;;;;4.25;1.10;;;;;;;14.81;100.00;92316.78;5065902;28;20048;-82
2023/10/26 00:21:31;;;;;;;7.65;1.60;;;;;;;14.86;100.00;92326.38;5068847;28;20078;-82
2023/10/26 00:23:58;;;;;;;5.60;1.23;;;;;;;14.75;100.00;92299.72;5067612;28;20598;-82
2023/10/26 00:26:25;;;;;;;4.82;1.20;;;;;;;14.82;100.00;92305.44;5066045;28;20049;-83
2023/10/26 00:28:51;;;;;;;5.13;1.30;;;;;;;14.83;100.00;92304.38;5062866;28;20111;-83
2023/10/26 00:31:19;;;;;;;5.68;1.60;;;;;;;14.81;100.00;92272.81;5067535;28;20102;-82
2023/10/26 00:33:46;;;;;;;4.40;1.38;;;;;;;14.96;100.00;92296.09;5064473;28;20049;-83
2023/10/26 00:36:13;;;;;;;5.07;1.70;;;;;;;14.89;100.00;92285.25;5065362;28;20408;-82
2023/10/26 00:38:39;;;;;;;3.28;1.17;;;;;;;14.91;100.00;92282.41;5068286;28;20098;-83
2023/10/26 00:41:06;;;;;;;3.35;1.10;;;;;;;14.66;100.00;92251.09;5065430;28;20814;-82
2023/10/26 00:43:33;;;;;;;8.65;1.98;;;;;;;14.85;100.00;92291.22;5066206;28;20037;-82
2023/10/26 00:46:00;;;;;;;3.33;1.10;;;;;;;14.83;100.00;92276.72;5065204;28;20111;-82
2023/10/26 00:48:29;;;;;;;5.05;1.15;;;;;;;14.86;100.00;92285.00;5065717;28;20086;-83
2023/10/26 00:50:55;;;;;;;4.38;1.45;;;;;;;14.87;100.00;92273.63;5066599;28;20044;-82
2023/10/26 00:53:22;;;;;;;3.38;1.17;;;;;;;14.81;100.00;92278.00;5065545;28;20121;-83
2023/10/26 00:55:52;;;;;;;6.95;1.55;;;;;;;14.80;100.00;92266.09;5066878;28;20052;-82
2023/10/26 00:58:20;;;;;;;5.03;1.67;;;;;;;14.87;100.00;92271.81;5064279;28;20036;-82
2023/10/26 01:00:48;;;;;;;5.70;1.40;;;;;;;14.80;100.00;92258.34;5064750;28;20049;-82
2023/10/26 01:03:15;;;;;;;5.22;1.40;;;;;;;14.87;100.00;92261.47;5065943;28;20053;-81
2023/10/26 01:05:43;;;;;;;5.32;1.58;;;;;;;14.79;100.00;92260.19;5062633;28;20044;-82
2023/10/26 01:08:12;;;;;;;5.05;1.23;;;;;;;14.73;100.00;92243.09;5066540;28;20055;-82
2023/10/26 01:10:39;;;;;;;3.33;1.00;;;;;;;14.55;100.00;92210.78;5065658;28;20048;-82
2023/10/26 01:13:39;;;;;;;4.20;1.05;;;;;;;14.48;100.00;92202.53;5063627;28;20049;-83
2023/10/26 01:16:06;;;;;;;7.50;1.15;;;;;;;14.78;100.00;92252.69;5064646;28;20048;-82
2023/10/26 01:18:33;;;;;;;4.60;1.35;;;;;;;14.79;100.00;92257.59;5062737;28;20048;-82
2023/10/26 01:21:01;;;;;;;4.43;1.40;;;;;;;14.78;100.00;92260.44;5067283;28;20094;-82
2023/10/26 01:23:29;;;;;;;4.57;1.17;;;;;;;14.78;100.00;92257.84;5066096;28;20040;-82
2023/10/26 01:25:58;;;;;;;4.13;1.25;;;;;;;14.79;100.00;92260.19;5060285;28;20435;-82
2023/10/26 01:28:25;;;;;;;7.40;1.60;;;;;;;14.78;100.00;92258.63;5065518;28;20115;-82
2023/10/26 01:30:52;;;;;;;3.35;1.17;;;;;;;14.64;100.00;92240.25;5064335;28;20920;-82
2023/10/26 01:33:19;;;;;;;3.13;1.48;;;;;;;14.69;100.00;92242.81;5065862;28;20040;-83
2023/10/26 01:35:46;;;;;;;4.15;1.10;;;;;;;14.85;100.00;92267.94;5060807;28;20052;-83
2023/10/26 01:38:14;;;;;;;5.75;1.30;;;;;;;14.74;100.00;92252.41;5064975;28;20466;-83
2023/10/26 01:40:42;;;;;;;6.13;1.80;;;;;;;14.76;100.00;92255.50;5065266;28;20094;-83
2023/10/26 01:43:09;;;;;;;7.68;1.40;;;;;;;14.83;100.00;92265.59;5065627;28;20102;-83
2023/10/26 01:45:36;;;;;;;5.35;1.75;;;;;;;14.85;100.00;92270.53;5065664;28;20037;-83
2023/10/26 01:48:03;;;;;;;5.38;1.10;;;;;;;14.67;100.00;92241.53;5061758;28;20041;-84
2023/10/26 01:50:30;;;;;;;5.07;1.20;;;;;;;14.80;100.00;92272.06;5062963;28;20048;-84
2023/10/26 01:52:57;;;;;;;5.20;1.30;;;;;;;14.75;100.00;92258.34;5063110;28;20052;-82
2023/10/26 01:55:24;;;;;;;4.47;1.15;;;;;;;14.80;100.00;92258.34;5062382;28;20095;-82
2023/10/26 01:57:53;;;;;;;4.93;1.58;;;;;;;14.75;100.00;92253.97;5066298;28;20074;-83
2023/10/26 02:00:19;;;;;;;3.35;1.08;;;;;;;14.53;100.00;92223.16;5064473;28;20044;-83
2023/10/26 02:02:49;;;;;;;4.30;1.23;;;;;;;14.78;100.00;92266.41;5063553;28;20049;-83
2023/10/26 02:05:18;;;;;;;9.20;1.23;;;;;;;14.51;100.00;92228.63;5064826;28;20047;-82
2023/10/26 02:07:45;;;;;;;4.55;1.33;;;;;;;14.66;100.00;92242.56;5064851;28;20056;-83
2023/10/26 02:10:14;;;;;;;7.40;1.17;;;;;;;14.85;100.00;92268.69;5063295;28;20820;-84
2023/10/26 02:12:41;;;;;;;3.30;1.30;;;;;;;14.88;100.00;92264.81;5064009;28;20093;-83
2023/10/26 02:15:10;;;;;;;4.80;1.27;;;;;;;14.77;100.00;92251.13;5063498;28;20045;-83
2023/10/26 02:17:37;;;;;;;4.03;1.40;;;;;;;14.90;100.00;92263.53;5064797;28;20040;-83
2023/10/26 02:20:04;;;;;;;5.50;1.98;;;;;;;14.68;100.00;92230.16;5061650;28;20186;-82
2023/10/26 02:22:31;;;;;;;5.07;1.27;;;;;;;14.91;100.00;92266.91;5063043;28;20040;-83
2023/10/26 02:24:57;;;;;;;6.60;1.80;;;;;;;14.89;100.00;92250.84;5064900;28;20044;-83
2023/10/26 02:27:24;;;;;;;6.15;2.30;;;;;;;14.86;100.00;92248.81;5064431;28;20040;-83
2023/10/26 02:29:51;;;;;;;6.03;1.98;;;;;;;14.82;100.00;92241.56;5063708;28;20551;-82
2023/10/26 02:32:19;;;;;;;6.00;1.70;;;;;;;14.68;100.00;92225.00;5065059;28;20102;-84
2023/10/26 02:34:45;;;;;;;8.95;2.40;;;;;;;14.78;100.00;92245.72;5063976;28;20086;-84
2023/10/26 02:37:12;;;;;;;7.00;1.75;;;;;;;14.78;100.00;92240.53;5063025;28;20126;-84
2023/10/26 02:39:39;;;;;;;6.38;2.17;;;;;;;14.77;100.00;92236.38;5064597;28;20041;-84
2023/10/26 02:42:06;;;;;;;3.75;1.52;;;;;;;14.76;100.00;92232.25;5064253;28;20052;-83
2023/10/26 02:44:32;;;;;;;7.28;2.00;;;;;;;14.74;100.00;92236.88;5065702;28;20045;-84
2023/10/26 02:46:59;;;;;;;7.07;1.85;;;;;;;14.70;100.00;92228.09;5066142;28;20094;-84
2023/10/26 02:49:27;;;;;;;6.00;2.05;;;;;;;14.72;100.00;92233.78;5070935;28;20109;-85
2023/10/26 02:51:54;;;;;;;9.30;2.13;;;;;;;14.65;100.00;92226.28;5068034;28;20045;-84
2023/10/26 02:54:21;;;;;;;7.18;2.40;;;;;;;14.67;100.00;92244.09;5071688;28;20573;-84
2023/10/26 02:56:47;;;;;;;8.98;2.60;;;;;;;14.66;100.00;92250.31;5072916;28;20044;-84
2023/10/26 02:59:14;;;;;;;5.90;1.92;;;;;;;14.62;100.00;92238.97;5066052;28;20098;-83
2023/10/26 03:01:41;;;;;;;7.45;2.13;;;;;;;14.67;100.00;92249.28;5070603;28;20439;-84
2023/10/26 03:04:07;;;;;;;9.60;2.47;;;;;;;14.65;100.00;92246.19;5070295;28;20102;-85
2023/10/26 03:06:38;;;;;;;8.85;2.20;;;;;;;14.69;100.00;92250.56;5071386;28;20045;-84
2023/10/26 03:09:05;;;;;;;7.68;2.17;;;;;;;14.72;100.00;92246.69;5070861;28;20492;-85
2023/10/26 03:11:32;;;;;;;6.45;2.00;;;;;;;14.73;100.00;92253.44;5070212;28;20716;-85
2023/10/26 03:13:59;;;;;;;8.93;2.10;;;;;;;14.68;100.00;92249.03;5068805;28;20566;-85
2023/10/26 03:16:26;;;;;;;6.13;2.30;;;;;;;14.64;100.00;92255.75;5070363;28;20048;-85
2023/10/26 03:18:53;;;;;;;5.60;2.22;;;;;;;14.68;100.00;92261.94;5066969;28;20045;-85
2023/10/26 03:21:20;;;;;;;7.45;3.30;;;;;;;14.63;100.00;92259.34;5067677;28;20041;-86
2023/10/26 03:23:52;;;;;;;7.47;2.50;;;;;;;14.47;100.00;92244.88;5069289;28;20049;-85
2023/10/26 03:26:19;;;;;;;10.02;2.70;;;;;;;14.46;100.00;92257.03;5070186;28;20135;-85
2023/10/26 03:28:46;;;;;;;9.82;3.35;;;;;;;14.35;100.00;92253.66;5068848;28;20052;-85
2023/10/26 03:31:12;;;;;;;8.13;3.08;;;;;;;14.42;100.00;92261.16;5072455;28;20720;-85
2023/10/26 03:33:39;;;;;;;10.02;3.75;;;;;;;14.37;100.00;92253.41;5067229;28;20098;-85
2023/10/26 03:36:13;;;;;;;11.05;3.85;;;;;;;14.37;100.00;92249.00;5070392;28;20052;-85
2023/10/26 03:38:40;;;;;;;8.32;3.42;;;;;;;14.40;100.00;92253.66;5068050;28;20049;-85
2023/10/26 03:41:08;;;;;;;10.73;3.75;;;;;;;14.39;100.00;92248.75;5071496;28;20397;-85
2023/10/26 03:43:35;;;;;;;12.95;5.20;;;;;;;14.42;100.00;92245.66;5069460;28;20052;-85
2023/10/26 03:46:01;;;;;;;12.70;5.65;;;;;;;14.38;100.00;92240.22;5072447;28;20467;-84
2023/10/26 03:48:28;;;;;;;13.88;6.88;;;;;;;14.28;100.00;92225.50;5070614;28;20040;-84
2023/10/26 03:50:55;;;;;;;12.93;5.18;;;;;;;14.27;100.00;92218.00;5068742;28;20053;-85
2023/10/26 03:53:22;;;;;;;10.82;5.32;;;;;;;14.41;100.00;92228.59;5072632;28;20052;-84
2023/10/26 03:55:49;;;;;;;11.82;4.85;;;;;;;14.32;100.00;92220.59;5070678;28;20049;-84
2023/10/26 03:58:17;;;;;;;10.40;4.45;;;;;;;14.38;100.00;92232.47;5068086;28;20049;-84
2023/10/26 04:00:44;;;;;;;11.48;5.75;;;;;;;14.34;100.00;92233.25;5069312;28;20057;-83
2023/10/26 04:03:10;;;;;;;10.90;3.97;;;;;;;14.24;100.00;92219.28;5069284;28;20416;-84
2023/10/26 04:05:37;;;;;;;11.02;3.97;;;;;;;14.22;100.00;92229.09;5067831;28;20041;-84
2023/10/26 04:08:05;;;;;;;14.25;4.60;;;;;;;14.16;100.00;92224.94;5068163;28;20451;-84
2023/10/26 04:10:32;;;;;;;12.07;4.35;;;;;;;14.16;100.00;92235.28;5064691;28;20773;-84
2023/10/26 04:12:58;;;;;;;13.13;4.75;;;;;;;14.08;100.00;92233.22;5066324;28;20102;-84
2023/10/26 04:15:26;;;;;;;11.52;3.85;;;;;;;14.02;100.00;92233.19;5065609;28;20463;-84
2023/10/26 04:17:53;;;;;;;8.65;4.85;;;;;;;14.01;100.00;92228.28;5068949;28;20044;-84
2023/10/26 04:20:21;;;;;;;10.05;4.60;;;;;;;13.94;100.00;92227.75;5063076;28;20048;-84
2023/10/26 04:22:48;;;;;;;10.65;4.80;;;;;;;13.92;100.00;92235.75;5069339;28;20462;-84
2023/10/26 04:25:15;;;;;;;11.25;5.32;;;;;;;13.12;100.00;92113.69;5069059;28;20106;-85
2023/10/26 04:27:41;;;;;;;10.48;4.22;;;;;;;13.72;100.00;92195.94;5064409;28;20048;-84
2023/10/26 04:30:09;;;;;;;12.98;4.57;;;;;;;13.97;100.00;92224.66;5067672;28;20121;-85
2023/10/26 04:32:37;;;;;;;7.85;4.35;;;;;;;13.93;100.00;92221.81;5068357;28;20045;-85
2023/10/26 04:35:05;;;;;;;10.25;4.30;;;;;;;13.95;100.00;92230.09;5061826;28;20500;-85
2023/10/26 04:37:32;;;;;;;12.32;5.13;;;;;;;13.97;100.00;92228.00;5066029;28;20115;-85
2023/10/26 04:39:58;;;;;;;10.07;3.97;;;;;;;13.87;100.00;92209.91;5063421;28;20098;-84
2023/10/26 04:42:25;;;;;;;10.60;4.35;;;;;;;13.97;100.00;92212.53;5066588;28;20048;-85
2023/10/26 04:44:52;;;;;;;8.88;3.95;;;;;;;13.89;100.00;92192.38;5068589;28;20563;-84
2023/10/26 04:47:18;;;;;;;9.52;4.28;;;;;;;13.89;100.00;92190.56;5067337;28;20044;-85
2023/10/26 04:49:46;;;;;;;11.90;4.13;;;;;;;14.03;100.00;92213.31;5067921;28;20488;-85
2023/10/26 04:52:15;;;;;;;9.32;4.10;;;;;;;14.06;100.00;92227.53;5068774;28;20454;-85
2023/10/26 04:54:42;;;;;;;9.05;3.70;;;;;;;14.05;100.00;92221.56;5064605;28;20499;-85
2023/10/26 04:57:09;;;;;;;10.15;3.53;;;;;;;13.84;100.00;92197.53;5066842;28;20048;-85
2023/10/26 04:59:35;;;;;;;13.82;4.65;;;;;;;13.89;100.00;92200.13;5063648;28;20044;-85
2023/10/26 05:02:02;;;;;;;13.82;4.10;;;;;;;13.99;100.00;92214.84;5066354;28;20104;-85
2023/10/26 05:04:29;;;;;;;10.02;3.17;;;;;;;13.96;100.00;92200.66;5068362;28;20509;-85
2023/10/26 05:06:58;;;;;;;7.70;4.07;;;;;;;14.00;100.00;92216.41;5063787;28;20102;-85
2023/10/26 05:09:24;;;;;;;6.07;3.53;;;;;;;13.98;100.00;92221.81;5065895;28;20114;-85
2023/10/26 05:11:51;;;;;;;13.10;4.05;;;;;;;13.83;100.00;92189.00;5068231;28;20052;-85
2023/10/26 05:14:18;;;;;;;9.00;4.05;;;;;;;13.85;100.00;92193.91;5067680;28;20045;-85
2023/10/26 05:16:44;;;;;;;11.15;4.07;;;;;;;13.86;100.00;92204.00;5066705;28;20057;-85
2023/10/26 05:19:11;;;;;;;9.45;4.15;;;;;;;14.03;100.00;92237.31;5069497;28;20051;-85
2023/10/26 05:21:38;;;;;;;12.93;4.18;;;;;;;14.06;100.00;92241.19;5071952;28;20125;-85
2023/10/26 05:24:06;;;;;;;8.68;3.97;;;;;;;13.96;100.00;92229.06;5070308;28;20053;-84
2023/10/26 05:26:33;;;;;;;7.97;3.63;;;;;;;14.09;100.00;92245.09;5070478;28;20056;-84
2023/10/26 05:29:00;;;;;;;7.32;3.40;;;;;;;14.12;100.00;92244.59;5071504;28;20044;-84
2023/10/26 05:31:26;;;;;;;13.38;4.68;;;;;;;14.13;100.00;92253.88;5069660;28;20048;-84
2023/10/26 05:33:53;;;;;;;9.98;3.97;;;;;;;14.15;100.00;92249.22;5064917;28;20045;-85
2023/10/26 05:36:20;;;;;;;14.25;3.80;;;;;;;14.25;100.00;92257.00;5075955;28;20056;-84
2023/10/26 05:38:47;;;;;;;13.85;3.88;;;;;;;14.20;100.00;92246.66;5061316;28;20451;-85
2023/10/26 05:41:15;;;;;;;7.55;3.47;;;;;;;14.36;100.00;92265.56;5064398;28;20571;-84
2023/10/26 05:43:42;;;;;;;11.55;4.47;;;;;;;14.34;100.00;92259.84;5069525;28;20048;-84
2023/10/26 05:46:08;;;;;;;12.55;4.13;;;;;;;14.47;100.00;92271.50;5068581;28;20090;-85
2023/10/26 05:48:35;;;;;;;12.80;4.47;;;;;;;14.46;100.00;92267.38;5063983;28;20045;-85
2023/10/26 05:51:02;;;;;;;11.52;3.30;;;;;;;14.60;100.00;92288.31;5075316;28;20045;-85
2023/10/26 05:53:29;;;;;;;9.52;3.08;;;;;;;14.57;100.00;92287.03;5065678;28;20048;-84
2023/10/26 05:55:57;;;;;;;13.75;4.45;;;;;;;14.49;100.00;92272.00;5074367;28;20045;-84
2023/10/26 05:58:25;;;;;;;8.98;3.58;;;;;;;14.66;100.00;92294.25;5067894;28;20044;-85
2023/10/26 06:00:52;;;;;;;8.98;3.65;;;;;;;14.62;100.00;92277.72;5068170;28;20045;-85
2023/10/26 06:03:19;;;;;;;9.13;3.20;;;;;;;14.72;100.00;92287.28;5059468;28;20125;-85
2023/10/26 06:05:47;;;;;;;12.23;4.00;;;;;;;14.63;100.00;92274.88;5078664;28;20113;-85
2023/10/26 06:08:14;;;;;;;10.50;3.15;;;;;;;14.86;100.00;92300.50;5081040;28;20041;-85
2023/10/26 06:10:41;;;;;;;10.80;3.50;;;;;;;14.76;100.00;92285.78;5071711;28;20044;-84
2023/10/26 06:13:08;;;;;;;9.75;2.88;;;;;;;14.98;100.00;92302.81;5072634;28;20146;-85
2023/10/26 06:15:37;;;;;;;15.35;4.53;;;;;;;14.97;100.00;92299.47;5073294;28;20514;-85
2023/10/26 06:18:04;;;;;;;9.57;3.03;;;;;;;15.09;100.00;92309.56;5070565;28;20595;-85
2023/10/26 06:20:30;;;;;;;11.75;3.33;;;;;;;15.10;100.00;92293.78;5075905;28;20048;-85
2023/10/26 06:22:57;;;;;;;9.45;3.00;;;;;;;15.09;100.00;92292.22;5084556;28;20503;-85
2023/10/26 06:25:25;;;;;;;11.48;3.40;;;;;;;15.25;100.00;92304.34;5076010;28;21002;-84
2023/10/26 06:27:52;;;;;;;10.93;3.38;;;;;;;15.33;100.00;92307.19;5067331;28;20824;-84
2023/10/26 06:30:19;;;;;;;9.23;2.65;;;;;;;15.42;100.00;92307.44;5067767;28;20044;-84
2023/10/26 06:32:47;;;;;;;9.77;3.90;;;;;;;15.48;100.00;92313.38;5067986;28;20052;-85
2023/10/26 06:35:14;;;;;;;6.68;2.97;;;;;;;15.61;100.00;92317.25;5078941;28;20064;-85
2023/10/26 06:37:40;;;;;;;9.75;3.67;;;;;;;15.67;100.00;92307.66;5069465;28;20052;-84
2023/10/26 06:40:08;;;;;;;9.75;2.95;;;;;;;15.73;100.00;92285.88;5066610;28;20496;-85
2023/10/26 06:42:35;;;;;;;6.50;2.67;;;;;;;16.01;100.00;92315.59;5070280;28;20455;-85
2023/10/26 06:45:03;;;;;;;8.18;2.70;;;;;;;16.13;100.00;92319.69;5073575;28;21184;-84
2023/10/26 06:47:29;;;;;;;9.65;4.35;;;;;;;16.35;100.00;92326.34;5068120;28;20098;-84
2023/10/26 06:49:58;;;;;;;8.48;3.40;;;;;;;16.50;100.00;92333.25;5068398;28;20419;-85
2023/10/26 06:52:25;;;;;;;9.93;3.00;;;;;;;16.63;100.00;92324.91;5067522;28;20451;-84
2023/10/26 06:54:52;;;;;;;9.77;3.35;;;;;;;16.74;100.00;92340.38;5071956;28;20052;-85
2023/10/26 06:57:18;;;;;;;6.82;2.38;;;;;;;16.79;100.00;92342.94;5079506;28;20048;-84
2023/10/26 06:59:45;;;;;;;8.70;2.33;;;;;;;16.87;100.00;92342.38;5068096;28;20057;-84
2023/10/26 07:02:12;;;;;;;6.35;2.40;;;;;;;16.97;100.00;92346.72;5067831;28;20548;-84
2023/10/26 07:04:39;;;;;;;5.88;2.30;;;;;;;16.85;100.00;92307.38;5071638;28;20048;-84
2023/10/26 07:07:08;;;;;;;8.48;2.88;;;;;;;16.94;100.00;92305.75;5073545;28;20056;-83
2023/10/26 07:09:36;;;;;;;9.82;2.67;;;;;;;17.33;100.00;92337.91;5071434;28;20076;-85
2023/10/26 07:12:03;;;;;;;9.20;1.77;;;;;;;17.47;100.00;92344.00;5071823;28;20080;-85
2023/10/26 07:14:30;;;;;;;7.85;2.33;;;;;;;17.64;100.00;92342.81;5070242;28;20048;-85
2023/10/26 07:16:57;;;;;;;6.25;2.20;;;;;;;17.72;100.00;92338.81;5071087;28;20056;-85
2023/10/26 07:19:24;;;;;;;8.68;2.03;;;;;;;17.90;100.00;92347.75;5072587;28;20040;-85
2023/10/26 07:21:51;;;;;;;6.40;2.20;;;;;;;17.89;100.00;92336.59;5064720;28;20053;-85
2023/10/26 07:24:19;;;;;;;10.43;2.13;;;;;;;18.09;100.00;92347.81;5070764;28;20493;-85
2023/10/26 07:26:45;;;;;;;4.15;1.80;;;;;;;18.19;100.00;92346.94;5068632;28;20117;-84
2023/10/26 07:29:12;;;;;;;9.20;2.85;;;;;;;18.35;100.00;92350.13;5068642;28;20117;-85
2023/10/26 07:31:39;;;;;;;7.75;2.10;;;;;;;18.47;100.00;92331.50;5067678;28;20048;-84
2023/10/26 07:34:06;;;;;;;4.88;1.70;;;;;;;18.52;100.00;92339.25;5075076;28;20052;-85
2023/10/26 07:36:32;;;;;;;7.78;1.85;;;;;;;18.55;100.00;92353.50;5070712;28;20557;-86
2023/10/26 07:38:59;;;;;;;7.50;1.70;;;;;;;18.55;100.00;92332.72;5071216;28;20113;-85
2023/10/26 07:41:28;;;;;;;6.65;2.03;;;;;;;18.36;100.00;92297.09;5071009;28;20101;-86
2023/10/26 07:43:55;;;;;;;6.65;1.88;;;;;;;18.64;100.00;92332.84;5074016;28;20052;-86
2023/10/26 07:46:22;;;;;;;9.02;2.78;;;;;;;18.60;100.00;92326.69;5085878;28;20454;-85
2023/10/26 07:48:48;;;;;;;12.52;2.42;;;;;;;18.62;99.29;92342.78;5079272;28;20048;-86
2023/10/26 07:51:15;;;;;;;9.23;2.60;;;;;;;18.65;100.00;92342.22;5074541;28;20378;-86
2023/10/26 07:53:42;;;;;;;7.38;2.17;;;;;;;18.66;100.00;92330.75;5075831;28;20056;-86
2023/10/26 07:56:09;;;;;;;7.68;1.77;;;;;;;18.71;100.00;92330.69;5074553;28;20055;-85
2023/10/26 07:58:37;;;;;;;7.78;2.13;;;;;;;18.58;98.90;92319.16;5071931;28;20090;-85
2023/10/26 08:01:09;;;;;;;9.40;2.60;;;;;;;18.58;97.80;92336.56;5082726;28;20052;-85
2023/10/26 08:03:36;;;;;;;7.75;2.30;;;;;;;18.37;98.45;92314.22;5084604;28;20045;-85
2023/10/26 08:06:04;;;;;;;8.65;2.40;;;;;;;18.53;98.66;92327.03;5075013;28;20783;-86
2023/10/26 08:08:31;;;;;;;9.75;2.63;;;;;;;18.61;98.30;92334.19;5070202;28;20059;-85
2023/10/26 08:11:07;;;;;;;13.93;2.63;;;;;;;18.65;98.25;92342.97;5070963;28;20048;-86
2023/10/26 08:13:33;;;;;;;11.07;2.20;;;;;;;18.67;98.46;92325.28;5074949;28;20052;-86
2023/10/26 08:16:02;;;;;;;10.48;2.05;;;;;;;18.83;97.27;92341.44;5078750;28;20436;-85
2023/10/26 08:18:29;;;;;;;10.05;2.00;;;;;;;18.95;97.18;92342.84;5071462;28;20665;-85
2023/10/26 08:20:56;;;;;;;9.30;2.25;;;;;;;19.05;97.08;92336.72;5075076;28;20118;-85
2023/10/26 08:23:23;;;;;;;15.48;2.72;;;;;;;19.21;95.94;92339.88;5071213;28;20052;-85
2023/10/26 08:25:50;;;;;;;6.82;2.13;;;;;;;19.31;94.21;92341.53;5073354;28;20051;-85
2023/10/26 08:28:17;;;;;;;8.20;2.00;;;;;;;19.07;94.42;92306.75;5076281;28;20516;-86
2023/10/26 08:30:43;;;;;;;7.65;2.00;;;;;;;19.35;92.51;92339.91;5075259;28;20578;-86
2023/10/26 08:33:11;;;;;;;4.97;1.50;;;;;;;19.30;93.27;92338.16;5071882;28;20102;-86
2023/10/26 08:35:40;;;;;;;12.73;2.53;;;;;;;19.27;93.36;92319.72;5070240;28;20118;-86
2023/10/26 08:38:06;;;;;;;7.05;2.35;;;;;;;19.43;93.01;92347.06;5075819;28;20049;-84
2023/10/26 08:40:34;;;;;;;10.98;2.42;;;;;;;19.34;92.20;92340.97;5068492;28;20489;-85
2023/10/26 08:43:05;;;;;;;12.85;2.75;;;;;;;19.44;92.81;92350.47;5075620;28;20048;-86
2023/10/26 08:45:34;;;;;;;8.23;1.80;;;;;;;19.44;92.82;92350.47;5069382;28;20052;-86
2023/10/26 08:48:02;;;;;;;13.85;2.20;;;;;;;19.43;93.45;92352.28;5075029;28;20051;-85
2023/10/26 08:50:30;;;;;;;6.60;2.75;;;;;;;19.48;93.73;92346.97;5072478;28;20044;-85
2023/10/26 08:52:57;;;;;;;8.77;2.30;;;;;;;19.49;93.62;92338.09;5075538;28;20048;-85
2023/10/26 08:55:24;;;;;;;7.85;1.63;;;;;;;19.62;91.97;92333.19;5070673;28;21006;-85
2023/10/26 08:57:54;;;;;;;6.43;1.70;;;;;;;19.78;92.62;92341.53;5070728;28;20063;-84
2023/10/26 09:00:22;;;;;;;9.98;2.70;;;;;;;19.89;91.26;92339.50;5070043;28;20057;-85
2023/10/26 09:02:50;;;;;;;7.10;1.60;;;;;;;19.85;90.76;92318.47;5074712;28;20097;-85
2023/10/26 09:05:17;;;;;;;6.47;1.92;;;;;;;20.07;90.41;92331.91;5067635;28;20191;-83
2023/10/26 09:07:45;;;;;;;8.52;1.80;;;;;;;20.00;90.13;92322.63;5071324;28;20067;-83
2023/10/26 09:10:12;;;;;;;5.18;1.70;;;;;;;19.99;90.93;92302.84;5070091;28;20116;-85
2023/10/26 09:12:38;;;;;;;7.38;1.75;;;;;;;19.92;90.29;92296.44;5073271;28;20052;-84
2023/10/26 09:15:08;;;;;;;6.63;1.77;;;;;;;20.02;90.66;92309.31;5069823;28;20455;-84
2023/10/26 09:17:35;;;;;;;7.40;1.73;;;;;;;20.08;89.72;92304.78;5077858;28;20157;-84
2023/10/26 09:20:16;;;;;;;12.15;1.88;;;;;;;20.03;89.28;92296.00;5079220;28;20132;-84
2023/10/26 09:22:45;;;;;;;8.40;1.58;;;;;;;20.10;89.16;92294.84;5069643;28;20049;-86
2023/10/26 09:25:13;;;;;;;8.57;1.50;;;;;;;20.26;89.28;92296.06;5072017;28;20044;-85
2023/10/26 09:27:40;;;;;;;11.30;2.22;;;;;;;20.45;88.79;92283.97;5070190;28;20126;-85
2023/10/26 09:30:22;;;;;;;6.15;2.25;;;;;;;20.72;87.03;92296.16;5070914;28;20094;-84
2023/10/26 09:32:49;;;;;;;10.10;1.65;;;;;;;21.04;84.23;92291.81;5070148;28;20532;-83
2023/10/26 09:35:26;;;;;;;4.85;1.55;;;;;;;21.29;82.50;92287.03;5070014;28;21122;-84
2023/10/26 09:37:54;;;;;;;10.20;1.98;;;;;;;21.48;78.65;92283.44;5073906;28;20118;-85
2023/10/26 09:40:21;;;;;;;6.40;2.08;;;;;;;21.47;79.78;92267.00;5070043;28;20067;-86
2023/10/26 09:42:49;;;;;;;8.38;1.70;;;;;;;21.38;77.72;92284.44;5070344;28;20052;-84
2023/10/26 09:45:17;;;;;;;5.88;1.45;;;;;;;21.26;77.13;92277.19;5073138;28;20048;-85
2023/10/26 09:47:45;;;;;;;11.60;1.60;;;;;;;21.33;77.73;92274.91;5072245;28;20098;-84
2023/10/26 09:50:11;;;;;;;7.47;1.90;;;;;;;21.49;78.38;92270.06;5069303;28;20131;-86
2023/10/26 09:52:39;;;;;;;7.43;1.63;;;;;;;21.56;77.96;92271.50;5070303;28;20048;-85
2023/10/26 09:55:10;;;;;;;8.02;1.80;;;;;;;21.51;76.56;92255.94;5074896;28;20496;-84
2023/10/26 09:57:43;;;;;;;8.20;1.25;;;;;;;21.52;76.06;92245.16;5071133;28;20048;-84
2023/10/26 10:00:11;;;;;;;5.53;1.27;;;;;;;21.68;75.93;92268.28;5070830;28;20056;-86
2023/10/26 10:02:38;;;;;;;5.88;1.52;;;;;;;21.34;75.79;92213.75;5074704;28;20137;-84
2023/10/26 10:05:06;;;;;;;6.70;1.35;;;;;;;21.78;75.72;92268.06;5070552;28;20056;-86
2023/10/26 10:07:43;;;;;;;4.28;1.30;;;;;;;21.80;75.79;92262.53;5070285;28;20135;-86
2023/10/26 10:10:13;;;;;;;3.20;1.08;;;;;;;21.86;74.40;92259.44;5070913;28;20846;-86
2023/10/26 10:12:42;;;;;;;5.82;1.40;;;;;;;21.92;74.63;92251.47;5072106;28;20052;-86
2023/10/26 10:15:13;;;;;;;5.10;1.85;;;;;;;21.92;74.12;92235.78;5068926;28;20658;-84
2023/10/26 10:18:05;;;;;;;9.13;1.40;;;;;;;21.92;74.52;92247.03;5076792;28;20515;-85
2023/10/26 10:20:33;;;;;;;9.88;1.60;;;;;;;21.97;75.44;92239.03;5065418;28;20105;-85
2023/10/26 10:23:01;;;;;;;5.70;1.48;;;;;;;22.02;73.36;92236.28;5074581;28;20097;-84
2023/10/26 10:26:00;;;;;;;7.70;1.38;;;;;;;21.82;74.25;92236.84;5068876;28;20060;-86
2023/10/26 10:28:41;;;;;;;2.60;0.82;;;;;;;21.67;73.79;92214.50;5060697;28;20056;-85
2023/10/26 10:31:09;;;;;;;5.93;1.55;;;;;;;21.80;74.10;92224.06;5080212;28;20140;-85
2023/10/26 10:33:41;;;;;;;5.30;1.27;;;;;;;21.76;74.47;92210.84;5065445;28;20052;-84
2023/10/26 10:36:09;;;;;;;6.45;1.75;;;;;;;21.66;75.23;92187.56;5070629;28;20175;-85
2023/10/26 10:38:36;;;;;;;6.50;1.30;;;;;;;21.89;74.58;92200.56;5071437;28;20541;-86
2023/10/26 10:41:14;;;;;;;6.80;1.83;;;;;;;22.09;74.61;92209.69;5070232;28;20056;-84
2023/10/26 10:43:44;;;;;;;5.03;1.38;;;;;;;22.06;73.44;92186.75;5068589;28;20639;-86
2023/10/26 10:46:12;;;;;;;11.60;1.35;;;;;;;22.07;71.01;92170.00;5069530;28;20055;-85
2023/10/26 10:49:04;;;;;;;5.47;1.65;;;;;;;22.45;71.51;92196.63;5069896;28;20051;-84
2023/10/26 10:51:32;;;;;;;6.80;2.00;;;;;;;22.42;69.72;92195.38;5073730;28;20048;-83
2023/10/26 10:53:59;;;;;;;6.47;1.30;;;;;;;22.43;71.11;92200.31;5072231;28;20059;-83
2023/10/26 10:56:27;;;;;;;10.65;2.55;;;;;;;22.24;70.30;92202.47;5072187;28;20093;-85
2023/10/26 10:58:56;;;;;;;7.40;1.45;;;;;;;22.13;71.93;92188.94;5067986;28;20113;-83
2023/10/26 11:01:23;;;;;;;8.82;2.45;;;;;;;21.88;72.16;92157.97;5068508;28;20777;-84
2023/10/26 11:03:50;;;;;;;5.72;1.85;;;;;;;21.94;72.41;92176.13;5080051;28;20047;-85
2023/10/26 11:06:18;;;;;;;8.77;1.70;;;;;;;21.76;72.80;92165.66;5072939;28;20044;-84
2023/10/26 11:08:45;;;;;;;5.63;1.88;;;;;;;21.59;72.23;92164.53;5069643;28;20048;-84
2023/10/26 11:11:29;;;;;;;4.10;1.67;;;;;;;21.56;73.54;92177.44;5071105;28;20048;-85
2023/10/26 11:14:09;;;;;;;5.63;2.05;;;;;;;21.39;74.26;92168.47;5068695;28;20560;-85
2023/10/26 11:16:38;;;;;;;10.32;1.83;;;;;;;21.08;75.61;92140.53;5076869;28;20574;-85
2023/10/26 11:19:38;;;;;;;8.30;2.00;;;;;;;20.21;75.99;92032.06;5070531;28;20084;-85
2023/10/26 11:22:05;;;;;;;7.50;1.50;;;;;;;20.94;76.88;92171.97;5067125;28;20051;-84
2023/10/26 11:24:32;;;;;;;7.80;1.85;;;;;;;20.79;76.93;92173.09;5068482;28;20135;-84
2023/10/26 11:27:18;;;;;;;7.15;1.73;;;;;;;20.66;77.03;92162.44;5065708;28;20041;-83
2023/10/26 11:29:59;;;;;;;7.30;1.50;;;;;;;20.53;77.47;92156.22;5089836;28;20059;-83
2023/10/26 11:32:30;;;;;;;14.05;2.15;;;;;;;20.58;77.53;92163.13;5088568;28;20129;-84